Time;durP1;ratioP1;P1;durP2;ratioP2;P2;SDS_P1;SDS_P2;PMS_P1;PMS_P2;Temp;Humidity;BMP_temperature;BMP_pressure;BME280_temperature;BME280_humidity;BME280_pressure;Samples;Min_cycle;Max_cycle;Signal;HPM_P1;HPM_P2
2024/03/23 00:01:40;;;;;;;11.23;4.90;;;11.90;99.90;;;;;;5072899;28;20502;-57
2024/03/23 00:04:09;;;;;;;18.00;5.83;;;11.90;99.90;;;;;;5072978;28;20469;-56
2024/03/23 00:06:40;;;;;;;11.37;5.60;;;11.90;99.90;;;;;;5072660;28;20523;-56
2024/03/23 00:09:09;;;;;;;13.13;5.60;;;11.80;99.90;;;;;;5072807;28;20824;-57
2024/03/23 00:11:40;;;;;;;11.53;5.70;;;11.80;99.90;;;;;;5072457;28;20879;-56
2024/03/23 00:14:09;;;;;;;13.83;5.70;;;11.80;99.90;;;;;;5072745;28;20789;-56
2024/03/23 00:16:40;;;;;;;12.33;5.30;;;11.80;99.90;;;;;;5075611;28;20870;-57
2024/03/23 00:19:09;;;;;;;8.40;4.57;;;11.80;99.90;;;;;;5076260;28;20539;-57
2024/03/23 00:21:40;;;;;;;7.70;4.77;;;11.70;99.90;;;;;;5076489;28;20444;-56
2024/03/23 00:24:11;;;;;;;8.40;4.20;;;11.70;99.90;;;;;;5076515;28;20473;-56
2024/03/23 00:26:42;;;;;;;10.67;4.13;;;11.70;99.90;;;;;;5076622;28;20425;-56
2024/03/23 00:29:11;;;;;;;9.50;4.10;;;11.60;99.90;;;;;;5076193;28;21009;-57
2024/03/23 00:31:42;;;;;;;9.27;4.90;;;11.60;99.90;;;;;;5076261;28;20444;-56
2024/03/23 00:34:11;;;;;;;8.93;5.10;;;11.60;99.90;;;;;;5076311;28;20531;-56
2024/03/23 00:36:42;;;;;;;13.40;4.67;;;11.60;99.90;;;;;;5075969;28;20448;-56
2024/03/23 00:39:11;;;;;;;9.23;4.60;;;11.50;99.90;;;;;;5075742;28;20974;-56
2024/03/23 00:41:42;;;;;;;7.37;4.23;;;11.50;99.90;;;;;;5076029;28;20448;-56
2024/03/23 00:44:12;;;;;;;8.80;4.80;;;11.50;99.90;;;;;;5075894;28;20484;-56
2024/03/23 00:46:42;;;;;;;11.50;4.57;;;11.50;99.90;;;;;;5075809;28;20931;-56
2024/03/23 00:49:12;;;;;;;9.13;4.27;;;11.50;99.90;;;;;;5076188;28;20461;-57
2024/03/23 00:51:42;;;;;;;11.40;5.10;;;11.50;99.90;;;;;;5075687;28;20452;-56
2024/03/23 00:54:09;;;;;;;7.40;4.23;;;11.50;99.90;;;;;;5075169;28;20529;-56
2024/03/23 00:56:36;;;;;;;10.40;4.97;;;11.50;99.90;;;;;;5075406;28;20468;-57
2024/03/23 00:59:02;;;;;;;7.40;4.20;;;11.50;99.90;;;;;;5075439;28;21052;-56
2024/03/23 01:01:29;;;;;;;11.13;3.77;;;11.30;99.90;;;;;;5075639;28;20531;-56
2024/03/23 01:03:55;;;;;;;7.17;4.07;;;11.20;99.90;;;;;;5075655;28;20226;-55
2024/03/23 01:06:22;;;;;;;8.30;4.10;;;11.10;99.90;;;;;;5075606;28;21037;-55
2024/03/23 01:08:48;;;;;;;8.53;3.00;;;11.00;99.90;;;;;;5075322;28;20309;-56
2024/03/23 01:11:16;;;;;;;8.13;3.43;;;10.80;99.90;;;;;;5075173;28;20531;-56
2024/03/23 01:13:42;;;;;;;6.80;2.83;;;10.80;99.90;;;;;;5075444;28;20202;-55
2024/03/23 01:16:08;;;;;;;9.13;3.10;;;10.70;99.90;;;;;;5075265;28;20815;-55
2024/03/23 01:18:34;;;;;;;3.97;2.50;;;10.60;99.90;;;;;;5079425;28;20237;-56
2024/03/23 01:21:01;;;;;;;6.17;2.30;;;10.60;99.90;;;;;;5075320;28;20489;-55
2024/03/23 01:23:27;;;;;;;6.40;2.53;;;10.60;99.90;;;;;;5075260;28;20203;-56
2024/03/23 01:25:54;;;;;;;7.20;2.80;;;10.60;99.90;;;;;;5075307;28;20524;-55
2024/03/23 01:28:21;;;;;;;4.77;2.10;;;10.60;99.90;;;;;;5074608;28;20206;-56
2024/03/23 01:30:48;;;;;;;7.20;2.70;;;10.50;99.90;;;;;;5075090;28;20466;-55
2024/03/23 01:33:15;;;;;;;6.77;1.83;;;10.50;99.90;;;;;;5075158;28;20494;-55
2024/03/23 01:35:42;;;;;;;6.70;1.93;;;10.40;99.90;;;;;;5075381;28;20445;-55
2024/03/23 01:38:08;;;;;;;3.00;1.90;;;10.40;99.90;;;;;;5074883;28;20947;-55
2024/03/23 01:40:34;;;;;;;7.93;3.20;;;10.30;99.90;;;;;;5074509;28;20560;-55
2024/03/23 01:43:04;;;;;;;5.07;2.90;;;10.30;99.90;;;;;;5074978;28;20205;-55
2024/03/23 01:45:33;;;;;;;9.10;2.90;;;10.30;99.90;;;;;;5074836;28;20970;-55
2024/03/23 01:47:59;;;;;;;6.13;2.30;;;10.40;99.90;;;;;;5074580;28;20445;-56
2024/03/23 01:50:26;;;;;;;5.60;2.00;;;10.40;99.90;;;;;;5074776;28;20460;-56
2024/03/23 01:52:53;;;;;;;7.53;1.90;;;10.40;99.90;;;;;;5074862;28;20447;-56
2024/03/23 01:55:20;;;;;;;7.07;2.03;;;10.40;99.90;;;;;;5074820;28;20498;-55
2024/03/23 01:57:46;;;;;;;7.20;2.20;;;10.40;99.90;;;;;;5074664;28;20448;-56
2024/03/23 02:00:13;;;;;;;9.30;2.73;;;10.40;99.90;;;;;;5074588;28;20482;-55
2024/03/23 02:02:44;;;;;;;3.40;1.33;;;10.40;99.90;;;;;;5075049;28;20825;-56
2024/03/23 02:05:11;;;;;;;3.07;1.20;;;10.40;99.90;;;;;;5074654;28;20536;-56
2024/03/23 02:07:38;;;;;;;4.03;1.50;;;10.40;99.90;;;;;;5075297;28;20447;-55
2024/03/23 02:10:06;;;;;;;4.07;1.80;;;10.40;99.90;;;;;;5074711;28;20513;-56
2024/03/23 02:12:32;;;;;;;5.50;1.83;;;10.40;99.90;;;;;;5074628;28;20487;-56
2024/03/23 02:14:58;;;;;;;7.20;1.93;;;10.50;99.90;;;;;;5074569;28;20919;-56
2024/03/23 02:17:24;;;;;;;5.53;1.87;;;10.50;99.90;;;;;;5074960;28;20198;-56
2024/03/23 02:19:53;;;;;;;7.80;1.80;;;10.50;99.90;;;;;;5074148;28;20471;-56
2024/03/23 02:22:19;;;;;;;4.90;1.63;;;10.50;99.90;;;;;;5074434;28;20202;-56
2024/03/23 02:24:47;;;;;;;6.17;1.77;;;10.50;99.90;;;;;;5074113;28;20575;-55
2024/03/23 02:27:13;;;;;;;9.33;2.10;;;10.50;99.90;;;;;;5074137;28;20203;-56
2024/03/23 02:29:40;;;;;;;4.17;1.40;;;10.50;99.90;;;;;;5073880;28;20471;-55
2024/03/23 02:32:08;;;;;;;4.10;1.70;;;10.40;99.90;;;;;;5073890;28;20808;-56
2024/03/23 02:34:35;;;;;;;6.20;1.83;;;10.40;99.90;;;;;;5073642;28;20483;-56
2024/03/23 02:37:01;;;;;;;10.53;2.97;;;10.40;99.90;;;;;;5073827;28;20451;-55
2024/03/23 02:39:28;;;;;;;2.70;1.30;;;10.40;99.90;;;;;;5072884;28;20467;-56
2024/03/23 02:41:55;;;;;;;5.30;1.60;;;10.30;99.90;;;;;;5073893;28;20447;-56
2024/03/23 02:44:23;;;;;;;3.93;1.87;;;10.30;99.90;;;;;;5073677;28;20472;-56
2024/03/23 02:46:48;;;;;;;5.63;1.50;;;10.30;99.90;;;;;;5073731;28;20524;-56
2024/03/23 02:49:15;;;;;;;5.60;2.03;;;10.30;99.90;;;;;;5073499;28;20543;-56
2024/03/23 02:51:41;;;;;;;6.27;2.50;;;10.20;99.90;;;;;;5073691;28;20584;-55
2024/03/23 02:54:08;;;;;;;6.73;2.07;;;10.20;99.90;;;;;;5073852;28;20439;-56
2024/03/23 02:56:34;;;;;;;3.03;1.67;;;10.20;99.90;;;;;;5073411;28;20408;-56
2024/03/23 02:59:02;;;;;;;5.53;2.57;;;10.10;99.90;;;;;;5073474;28;21028;-56
2024/03/23 03:01:28;;;;;;;4.80;1.90;;;10.10;99.90;;;;;;5073565;28;20202;-56
2024/03/23 03:03:55;;;;;;;6.07;1.87;;;10.00;99.90;;;;;;5073273;28;20494;-56
2024/03/23 03:06:24;;;;;;;9.00;1.80;;;10.00;99.90;;;;;;5073468;28;20213;-55
2024/03/23 03:08:51;;;;;;;8.00;1.90;;;10.00;99.90;;;;;;5073275;28;20473;-55
2024/03/23 03:11:17;;;;;;;4.43;1.63;;;10.00;99.90;;;;;;5073454;28;20444;-56
2024/03/23 03:13:44;;;;;;;5.37;2.50;;;10.00;99.90;;;;;;5072915;28;20536;-56
2024/03/23 03:16:11;;;;;;;3.43;1.53;;;10.00;99.90;;;;;;5073201;28;20285;-56
2024/03/23 03:18:38;;;;;;;9.00;1.77;;;10.00;99.90;;;;;;5073379;28;20532;-56
2024/03/23 03:21:05;;;;;;;5.80;1.80;;;9.90;99.90;;;;;;5073485;28;20445;-56
2024/03/23 03:23:32;;;;;;;10.00;1.73;;;9.90;99.90;;;;;;5073317;28;20532;-56
2024/03/23 03:25:58;;;;;;;9.50;1.90;;;9.90;99.90;;;;;;5073191;28;20476;-56
2024/03/23 03:28:26;;;;;;;6.50;2.10;;;9.90;99.90;;;;;;5073202;28;20536;-55
2024/03/23 03:30:52;;;;;;;9.50;2.60;;;9.80;99.90;;;;;;5073263;28;20482;-55
2024/03/23 03:33:20;;;;;;;5.80;2.07;;;9.80;99.90;;;;;;5072929;28;20897;-56
2024/03/23 03:35:46;;;;;;;12.47;1.93;;;9.80;99.90;;;;;;5072881;28;20627;-55
2024/03/23 03:38:12;;;;;;;5.67;1.97;;;9.70;99.90;;;;;;5073089;28;20480;-55
2024/03/23 03:40:38;;;;;;;8.67;3.67;;;9.70;99.90;;;;;;5073170;28;20218;-55
2024/03/23 03:43:05;;;;;;;8.87;2.13;;;9.70;99.90;;;;;;5073086;28;20527;-56
2024/03/23 03:45:31;;;;;;;7.57;2.00;;;9.70;99.90;;;;;;5072976;28;20222;-56
2024/03/23 03:47:59;;;;;;;4.40;1.90;;;9.60;99.90;;;;;;5073241;28;20533;-56
2024/03/23 03:50:26;;;;;;;6.90;2.37;;;9.60;99.90;;;;;;5073995;28;20218;-56
2024/03/23 03:52:53;;;;;;;4.60;2.30;;;9.50;99.90;;;;;;5077261;28;20440;-56
2024/03/23 03:55:18;;;;;;;3.60;1.80;;;9.50;99.90;;;;;;5076931;28;20527;-56
2024/03/23 03:57:45;;;;;;;6.33;2.57;;;9.40;99.90;;;;;;5076601;28;21033;-55
2024/03/23 04:00:12;;;;;;;7.37;2.40;;;9.40;99.90;;;;;;5076666;28;20222;-56
2024/03/23 04:02:39;;;;;;;10.33;2.60;;;9.30;99.90;;;;;;5076741;28;20448;-56
2024/03/23 04:05:05;;;;;;;7.70;2.50;;;9.20;99.90;;;;;;5076537;28;20476;-56
2024/03/23 04:07:34;;;;;;;18.37;3.80;;;9.10;99.90;;;;;;5076796;28;20440;-55
2024/03/23 04:10:00;;;;;;;8.53;2.30;;;9.10;99.90;;;;;;5076501;28;20468;-55
2024/03/23 04:12:26;;;;;;;11.27;2.73;;;9.00;99.90;;;;;;5076245;28;20443;-55
2024/03/23 04:14:52;;;;;;;8.37;1.93;;;9.00;99.90;;;;;;5076544;28;20813;-55
2024/03/23 04:17:19;;;;;;;13.43;2.50;;;9.00;99.90;;;;;;5076467;28;20527;-55
2024/03/23 04:19:45;;;;;;;7.07;2.37;;;9.00;99.90;;;;;;5076333;28;20226;-55
2024/03/23 04:22:12;;;;;;;5.40;2.40;;;9.00;99.90;;;;;;5076319;28;20535;-55
2024/03/23 04:24:39;;;;;;;8.60;2.30;;;8.90;99.90;;;;;;5075842;28;20583;-55
2024/03/23 04:27:06;;;;;;;7.83;2.60;;;9.00;99.90;;;;;;5075875;28;20451;-56
2024/03/23 04:29:32;;;;;;;8.40;2.70;;;9.00;99.90;;;;;;5076105;28;20467;-56
2024/03/23 04:31:59;;;;;;;15.23;2.70;;;9.00;99.90;;;;;;5076267;28;20841;-55
2024/03/23 04:34:25;;;;;;;6.60;2.60;;;8.90;99.90;;;;;;5076224;28;20201;-56
2024/03/23 04:36:52;;;;;;;8.07;3.40;;;8.80;99.90;;;;;;5076130;28;20444;-56
2024/03/23 04:39:19;;;;;;;9.53;2.70;;;8.80;99.90;;;;;;5075649;28;20222;-56
2024/03/23 04:41:47;;;;;;;10.37;3.67;;;8.80;99.90;;;;;;5075768;28;21044;-55
2024/03/23 04:44:14;;;;;;;9.47;3.27;;;8.70;99.90;;;;;;5075834;28;20809;-56
2024/03/23 04:46:41;;;;;;;7.67;3.00;;;8.60;99.90;;;;;;5075865;28;21018;-56
2024/03/23 04:49:08;;;;;;;10.43;3.60;;;8.60;99.90;;;;;;5075716;28;20476;-55
2024/03/23 04:51:36;;;;;;;13.80;4.17;;;8.50;99.90;;;;;;5075823;28;20441;-55
2024/03/23 04:54:03;;;;;;;13.67;3.80;;;8.40;99.90;;;;;;5075867;28;20437;-55
2024/03/23 04:56:31;;;;;;;5.40;3.23;;;8.40;99.90;;;;;;5075618;28;20456;-56
2024/03/23 04:59:01;;;;;;;7.17;2.90;;;8.30;99.90;;;;;;5075728;28;20469;-56
2024/03/23 05:01:28;;;;;;;9.93;3.83;;;8.30;99.90;;;;;;5074603;28;21009;-55
2024/03/23 05:03:55;;;;;;;12.13;4.23;;;8.30;99.90;;;;;;5075282;28;20468;-56
2024/03/23 05:06:22;;;;;;;8.23;3.50;;;8.30;99.90;;;;;;5075141;28;20519;-56
2024/03/23 05:08:47;;;;;;;8.40;4.47;;;8.30;99.90;;;;;;5075613;28;20202;-56
2024/03/23 05:11:15;;;;;;;11.30;3.40;;;8.20;99.90;;;;;;5075403;28;20531;-56
2024/03/23 05:13:41;;;;;;;7.00;2.90;;;8.10;99.90;;;;;;5075518;28;20285;-56
2024/03/23 05:16:09;;;;;;;8.70;3.50;;;8.10;99.90;;;;;;5075322;28;20436;-56
2024/03/23 05:18:35;;;;;;;8.23;3.60;;;8.00;99.90;;;;;;5075250;28;20203;-56
2024/03/23 05:21:03;;;;;;;11.20;3.30;;;8.00;99.90;;;;;;5075311;28;20490;-56
2024/03/23 05:23:29;;;;;;;7.70;2.77;;;8.00;99.90;;;;;;5075273;28;20449;-55
2024/03/23 05:25:56;;;;;;;9.83;2.43;;;8.10;99.90;;;;;;5074810;28;20882;-55
2024/03/23 05:28:22;;;;;;;11.97;3.13;;;8.10;99.90;;;;;;5074925;28;20443;-56
2024/03/23 05:30:51;;;;;;;7.60;3.03;;;8.10;99.90;;;;;;5075307;28;20547;-56
2024/03/23 05:33:20;;;;;;;10.53;3.40;;;8.10;99.90;;;;;;5075358;28;20448;-56
2024/03/23 05:35:47;;;;;;;15.97;4.93;;;8.10;99.90;;;;;;5075301;28;20449;-56
2024/03/23 05:38:13;;;;;;;12.07;4.10;;;8.10;99.90;;;;;;5075295;28;20466;-56
2024/03/23 05:40:40;;;;;;;14.40;4.07;;;8.10;99.90;;;;;;5075168;28;20460;-55
2024/03/23 05:43:06;;;;;;;8.57;3.20;;;8.10;99.90;;;;;;5074908;28;20535;-55
2024/03/23 05:45:33;;;;;;;10.57;3.33;;;8.10;99.90;;;;;;5074916;28;20472;-55
2024/03/23 05:47:59;;;;;;;7.27;3.40;;;8.10;99.90;;;;;;5074787;28;20448;-56
2024/03/23 05:50:27;;;;;;;18.00;4.20;;;8.00;99.90;;;;;;5074641;28;20973;-55
2024/03/23 05:52:53;;;;;;;13.30;3.60;;;8.00;99.90;;;;;;5074818;28;20205;-55
2024/03/23 05:55:20;;;;;;;11.03;3.33;;;8.00;99.90;;;;;;5074883;28;20806;-55
2024/03/23 05:57:46;;;;;;;7.00;3.60;;;8.00;99.90;;;;;;5074608;28;20567;-55
2024/03/23 06:00:16;;;;;;;8.30;4.43;;;7.90;99.90;;;;;;5074560;28;20449;-56
2024/03/23 06:02:44;;;;;;;9.57;4.57;;;7.90;99.90;;;;;;5074635;28;20285;-55
2024/03/23 06:05:11;;;;;;;12.40;5.20;;;7.80;99.90;;;;;;5074068;28;21072;-56
2024/03/23 06:07:39;;;;;;;15.80;6.73;;;7.80;99.90;;;;;;5074264;28;20539;-56
2024/03/23 06:10:06;;;;;;;6.73;3.43;;;7.80;99.90;;;;;;5074446;28;20522;-55
2024/03/23 06:12:32;;;;;;;10.50;3.93;;;7.70;99.90;;;;;;5074222;28;20535;-55
2024/03/23 06:14:59;;;;;;;7.50;4.53;;;7.70;99.90;;;;;;5073939;28;20535;-55
2024/03/23 06:17:25;;;;;;;14.33;4.70;;;7.70;99.90;;;;;;5075347;28;20280;-56
2024/03/23 06:19:52;;;;;;;10.83;4.40;;;7.70;99.90;;;;;;5074162;28;20464;-56
2024/03/23 06:22:18;;;;;;;16.43;4.97;;;7.60;99.90;;;;;;5074189;28;20203;-55
2024/03/23 06:24:46;;;;;;;8.80;4.20;;;7.60;99.90;;;;;;5073967;28;21018;-55
2024/03/23 06:27:12;;;;;;;9.87;3.90;;;7.70;99.90;;;;;;5073968;28;20206;-55
2024/03/23 06:29:39;;;;;;;7.40;4.53;;;7.70;99.90;;;;;;5073858;28;20547;-55
2024/03/23 06:32:05;;;;;;;11.77;4.07;;;7.70;99.90;;;;;;5073906;28;20304;-55
2024/03/23 06:34:32;;;;;;;11.70;4.43;;;7.80;99.90;;;;;;5073649;28;21018;-55
2024/03/23 06:36:58;;;;;;;13.17;3.83;;;7.80;99.90;;;;;;5074218;28;20431;-56
2024/03/23 06:39:25;;;;;;;10.87;4.20;;;7.90;99.90;;;;;;5073510;28;20548;-55
2024/03/23 06:41:54;;;;;;;7.80;4.63;;;7.90;99.90;;;;;;5073819;28;20234;-55
2024/03/23 06:44:21;;;;;;;8.50;4.00;;;7.90;99.90;;;;;;5073842;28;20441;-55
2024/03/23 06:46:48;;;;;;;12.30;4.90;;;7.90;99.90;;;;;;5073278;28;20475;-55
2024/03/23 06:49:15;;;;;;;14.20;4.70;;;7.90;99.90;;;;;;5073267;28;20487;-56
2024/03/23 06:51:41;;;;;;;13.43;4.73;;;7.90;99.90;;;;;;5073333;28;20444;-56
2024/03/23 06:54:08;;;;;;;20.67;5.13;;;7.90;99.90;;;;;;5073703;28;20455;-55
2024/03/23 06:56:34;;;;;;;11.63;5.47;;;7.90;99.90;;;;;;5073502;28;20292;-56
2024/03/23 06:59:02;;;;;;;12.63;5.87;;;7.90;99.90;;;;;;5073481;28;20551;-56
2024/03/23 07:01:28;;;;;;;16.20;5.33;;;8.00;99.90;;;;;;5073620;28;20206;-55
2024/03/23 07:03:55;;;;;;;12.80;4.73;;;8.00;99.90;;;;;;5073467;28;20532;-55
2024/03/23 07:06:21;;;;;;;13.73;6.13;;;8.10;99.90;;;;;;5073383;28;20472;-56
2024/03/23 07:08:48;;;;;;;12.53;5.23;;;8.20;99.90;;;;;;5073358;28;20518;-55
2024/03/23 07:11:19;;;;;;;13.93;5.60;;;8.30;99.90;;;;;;5073386;28;20441;-56
2024/03/23 07:13:46;;;;;;;15.10;4.93;;;8.30;99.90;;;;;;5073103;28;20915;-55
2024/03/23 07:16:15;;;;;;;13.13;5.10;;;8.40;99.90;;;;;;5073381;28;20878;-55
2024/03/23 07:18:42;;;;;;;13.30;5.40;;;8.40;99.90;;;;;;5073406;28;20451;-55
2024/03/23 07:21:08;;;;;;;10.00;5.27;;;8.60;99.90;;;;;;5072937;28;20531;-55
2024/03/23 07:23:35;;;;;;;19.30;6.93;;;8.60;99.90;;;;;;5072933;28;20539;-55
2024/03/23 07:26:02;;;;;;;15.33;7.50;;;8.70;99.90;;;;;;5072546;28;20229;-55
2024/03/23 07:28:32;;;;;;;13.60;7.10;;;8.80;99.90;;;;;;5073074;28;20544;-55
2024/03/23 07:31:05;;;;;;;13.60;6.97;;;8.80;99.90;;;;;;5073253;28;20523;-55
2024/03/23 07:33:34;;;;;;;17.03;8.47;;;8.90;99.90;;;;;;5073237;28;20440;-55
2024/03/23 07:36:00;;;;;;;17.43;8.33;;;9.00;99.90;;;;;;5073203;28;20449;-55
2024/03/23 07:38:28;;;;;;;13.80;7.47;;;9.10;99.90;;;;;;5073188;28;21014;-55
2024/03/23 07:41:03;;;;;;;13.27;6.50;;;9.00;99.90;;;;;;5073029;28;20313;-55
2024/03/23 07:43:30;;;;;;;7.93;5.90;;;9.10;99.90;;;;;;5072851;28;20797;-55
2024/03/23 07:45:56;;;;;;;9.40;5.10;;;9.10;99.90;;;;;;5073081;28;20488;-55
2024/03/23 07:48:23;;;;;;;10.40;5.37;;;9.10;99.90;;;;;;5072992;28;20536;-55
2024/03/23 07:50:58;;;;;;;11.60;4.23;;;9.10;99.90;;;;;;5072830;28;20222;-55
2024/03/23 07:53:25;;;;;;;10.37;4.53;;;9.10;99.90;;;;;;5072699;28;20849;-55
2024/03/23 07:55:58;;;;;;;5.43;3.93;;;9.20;99.90;;;;;;5072723;28;20524;-55
2024/03/23 07:58:25;;;;;;;7.87;3.80;;;9.30;99.90;;;;;;5072996;28;20435;-54
2024/03/23 08:00:52;;;;;;;12.63;4.10;;;9.30;99.90;;;;;;5072897;28;20472;-54
2024/03/23 08:03:19;;;;;;;6.80;3.27;;;9.30;99.90;;;;;;5073005;28;20833;-55
2024/03/23 08:05:45;;;;;;;8.67;4.07;;;9.40;99.90;;;;;;5072860;28;20479;-55
2024/03/23 08:08:14;;;;;;;9.70;3.77;;;9.60;99.90;;;;;;5072812;28;20452;-54
2024/03/23 08:10:48;;;;;;;6.10;2.37;;;9.60;99.90;;;;;;5072856;28;20460;-55
2024/03/23 08:13:15;;;;;;;6.20;2.63;;;9.60;99.90;;;;;;5072709;28;20437;-55
2024/03/23 08:15:41;;;;;;;11.30;3.20;;;9.50;99.90;;;;;;5072848;28;20528;-54
2024/03/23 08:18:08;;;;;;;5.57;2.70;;;9.50;99.90;;;;;;5072492;28;20528;-54
2024/03/23 08:20:34;;;;;;;10.00;3.20;;;9.60;99.90;;;;;;5072720;28;20262;-54
2024/03/23 08:23:00;;;;;;;6.97;4.20;;;9.60;99.90;;;;;;5073457;28;20501;-56
2024/03/23 08:25:31;;;;;;;11.27;3.83;;;9.50;99.90;;;;;;5072698;28;20222;-54
2024/03/23 08:27:58;;;;;;;8.80;3.80;;;9.60;99.90;;;;;;5072569;28;20429;-55
2024/03/23 08:30:24;;;;;;;10.37;3.43;;;9.70;99.90;;;;;;5072817;28;20459;-54
2024/03/23 08:32:50;;;;;;;8.50;3.10;;;9.70;99.90;;;;;;5072728;28;20464;-54
2024/03/23 08:35:16;;;;;;;6.80;3.83;;;9.80;99.90;;;;;;5072678;28;20471;-54
2024/03/23 08:37:43;;;;;;;9.67;4.87;;;9.90;99.90;;;;;;5074508;28;20977;-54
2024/03/23 08:40:10;;;;;;;9.93;4.17;;;10.00;99.70;;;;;;5076016;28;20276;-54
2024/03/23 08:42:38;;;;;;;9.40;3.73;;;10.10;99.70;;;;;;5076317;28;20440;-54
2024/03/23 08:45:07;;;;;;;14.20;4.53;;;10.10;99.60;;;;;;5076291;28;20447;-55
2024/03/23 08:47:35;;;;;;;13.50;4.97;;;10.20;99.30;;;;;;5076188;28;20541;-55
2024/03/23 08:50:02;;;;;;;13.03;4.50;;;10.20;99.70;;;;;;5076983;28;20461;-55
2024/03/23 08:52:29;;;;;;;12.97;4.73;;;10.20;99.90;;;;;;5076041;28;20444;-54
2024/03/23 08:54:55;;;;;;;15.43;5.37;;;10.20;99.90;;;;;;5076498;28;20440;-54
2024/03/23 08:57:22;;;;;;;15.87;4.10;;;10.20;99.90;;;;;;5075840;28;20501;-54
2024/03/23 08:59:50;;;;;;;9.13;4.20;;;10.20;99.70;;;;;;5075957;28;20457;-54
2024/03/23 09:02:17;;;;;;;10.77;4.50;;;10.20;99.30;;;;;;5076138;28;20472;-54
2024/03/23 09:04:44;;;;;;;11.77;4.80;;;10.10;98.80;;;;;;5076044;28;20448;-54
2024/03/23 09:07:10;;;;;;;9.13;4.73;;;10.10;99.30;;;;;;5075414;28;21008;-54
2024/03/23 09:09:38;;;;;;;7.30;3.93;;;10.20;99.90;;;;;;5075555;28;20465;-55
2024/03/23 09:12:05;;;;;;;7.50;3.97;;;10.30;99.90;;;;;;5075375;28;20441;-55
2024/03/23 09:14:31;;;;;;;4.60;3.20;;;10.30;99.30;;;;;;5075585;28;20440;-54
2024/03/23 09:16:59;;;;;;;8.77;3.30;;;10.30;98.00;;;;;;5075704;28;20519;-54
2024/03/23 09:19:28;;;;;;;11.40;3.67;;;10.30;97.80;;;;;;5075533;28;20314;-55
2024/03/23 09:21:54;;;;;;;5.43;3.07;;;10.30;98.50;;;;;;5075718;28;20498;-55
2024/03/23 09:24:21;;;;;;;11.20;3.30;;;10.30;98.10;;;;;;5075586;28;20544;-55
2024/03/23 09:26:48;;;;;;;15.70;3.90;;;10.50;98.00;;;;;;5075539;28;20517;-55
2024/03/23 09:29:13;;;;;;;8.13;3.47;;;10.70;97.40;;;;;;5075503;28;20461;-55
2024/03/23 09:31:41;;;;;;;12.87;3.50;;;10.80;97.00;;;;;;5075341;28;20535;-55
2024/03/23 09:34:08;;;;;;;7.83;2.83;;;10.90;97.40;;;;;;5075154;28;20813;-56
2024/03/23 09:36:35;;;;;;;7.30;2.73;;;10.90;96.40;;;;;;5075325;28;20495;-55
2024/03/23 09:39:01;;;;;;;7.67;2.60;;;10.90;95.70;;;;;;5075300;28;20551;-55
2024/03/23 09:41:30;;;;;;;9.90;2.73;;;10.80;94.20;;;;;;5075171;28;20543;-55
2024/03/23 09:43:56;;;;;;;7.80;2.70;;;10.80;94.70;;;;;;5075571;28;20523;-55
2024/03/23 09:46:23;;;;;;;6.97;1.90;;;10.70;93.70;;;;;;5075614;28;21061;-55
2024/03/23 09:48:49;;;;;;;11.00;2.10;;;10.60;92.40;;;;;;5074881;28;20451;-56
2024/03/23 09:51:17;;;;;;;5.47;2.30;;;10.50;92.60;;;;;;5074663;28;20444;-55
2024/03/23 09:53:43;;;;;;;10.27;2.90;;;10.50;92.80;;;;;;5075164;28;20209;-55
2024/03/23 09:56:10;;;;;;;6.50;2.43;;;10.40;92.70;;;;;;5074299;28;20461;-55
2024/03/23 09:58:36;;;;;;;6.97;2.20;;;10.30;93.20;;;;;;5074523;28;20186;-55
2024/03/23 10:01:03;;;;;;;10.60;2.40;;;10.20;93.50;;;;;;5074580;28;20441;-55
2024/03/23 10:03:29;;;;;;;8.63;2.17;;;10.50;95.50;;;;;;5074543;28;20202;-55
2024/03/23 10:06:03;;;;;;;7.83;2.50;;;10.80;93.70;;;;;;5074346;28;20904;-56
2024/03/23 10:08:31;;;;;;;7.03;2.30;;;10.90;94.10;;;;;;5074094;28;20201;-56
2024/03/23 10:10:58;;;;;;;13.43;2.50;;;10.70;93.90;;;;;;5074539;28;20473;-56
2024/03/23 10:13:25;;;;;;;12.03;2.63;;;10.60;94.10;;;;;;5073983;28;20803;-56
2024/03/23 10:15:57;;;;;;;7.20;2.37;;;10.40;95.00;;;;;;5073957;28;20447;-56
2024/03/23 10:18:24;;;;;;;4.03;2.00;;;10.50;95.40;;;;;;5073929;28;20429;-56
2024/03/23 10:20:53;;;;;;;2.70;1.63;;;10.50;94.30;;;;;;5074230;28;20465;-56
2024/03/23 10:23:19;;;;;;;11.63;2.50;;;10.50;92.30;;;;;;5073914;28;20931;-56
2024/03/23 10:25:47;;;;;;;4.50;2.03;;;10.30;92.40;;;;;;5074018;28;20476;-56
2024/03/23 10:28:13;;;;;;;6.03;2.10;;;10.30;93.40;;;;;;5073660;28;20440;-55
2024/03/23 10:30:40;;;;;;;9.33;2.30;;;10.20;93.80;;;;;;5073809;28;20590;-56
2024/03/23 10:33:09;;;;;;;5.73;2.50;;;10.10;94.30;;;;;;5073945;28;20202;-55
2024/03/23 10:35:37;;;;;;;3.10;1.70;;;10.00;93.90;;;;;;5073962;28;20437;-55
2024/03/23 10:38:06;;;;;;;7.00;2.50;;;10.30;94.70;;;;;;5073553;28;20436;-55
2024/03/23 10:40:34;;;;;;;6.93;1.80;;;10.80;95.30;;;;;;5073760;28;20518;-55
2024/03/23 10:43:03;;;;;;;3.30;1.20;;;11.50;94.20;;;;;;5073869;28;20451;-56
2024/03/23 10:45:30;;;;;;;1.90;0.60;;;11.30;91.70;;;;;;5073658;28;20533;-56
2024/03/23 10:47:56;;;;;;;1.63;0.90;;;10.70;91.80;;;;;;5073805;28;20440;-59
2024/03/23 10:50:24;;;;;;;2.23;1.10;;;10.10;92.70;;;;;;5073293;28;21057;-58
2024/03/23 10:52:53;;;;;;;2.83;0.90;;;9.60;95.00;;;;;;5073665;28;20206;-56
2024/03/23 10:55:22;;;;;;;1.70;0.97;;;9.10;96.20;;;;;;5073695;28;20476;-55
2024/03/23 10:57:51;;;;;;;2.87;1.00;;;8.80;96.80;;;;;;5074121;28;20454;-55
2024/03/23 11:00:21;;;;;;;4.17;0.80;;;8.60;97.60;;;;;;5072900;28;20464;-55
2024/03/23 11:02:47;;;;;;;2.03;0.90;;;8.40;98.60;;;;;;5073615;28;20484;-55
2024/03/23 11:05:31;;;;;;;2.43;0.80;;;8.30;99.00;;;;;;5073577;28;20449;-55
2024/03/23 11:07:57;;;;;;;5.23;1.60;;;8.30;99.30;;;;;;5073368;28;20810;-55
2024/03/23 11:10:29;;;;;;;2.63;0.70;;;8.30;99.00;;;;;;5073388;28;20518;-55
2024/03/23 11:12:55;;;;;;;3.07;0.90;;;8.40;99.30;;;;;;5073369;28;20441;-55
2024/03/23 11:15:23;;;;;;;2.13;0.93;;;9.00;99.10;;;;;;5073526;28;20532;-55
2024/03/23 11:18:08;;;;;;;2.30;0.90;;;10.20;97.00;;;;;;5073180;28;20881;-56
2024/03/23 11:20:36;;;;;;;1.97;0.70;;;11.50;94.20;;;;;;5073803;28;20476;-55
2024/03/23 11:23:02;;;;;;;2.80;1.20;;;12.50;91.40;;;;;;5073066;28;20515;-56
2024/03/23 11:25:30;;;;;;;1.03;0.80;;;13.30;89.00;;;;;;5073282;28;20441;-55
2024/03/23 11:27:57;;;;;;;1.70;0.90;;;14.00;84.20;;;;;;5073329;28;20454;-55
2024/03/23 11:30:27;;;;;;;2.23;1.00;;;14.50;80.00;;;;;;5073215;28;20893;-55
2024/03/23 11:32:54;;;;;;;1.93;0.80;;;15.40;78.60;;;;;;5073438;28;20448;-55
2024/03/23 11:35:28;;;;;;;4.43;1.10;;;15.90;75.70;;;;;;5073855;28;20449;-55
2024/03/23 11:38:09;;;;;;;2.97;1.40;;;16.70;74.40;;;;;;5073295;28;20528;-55
2024/03/23 11:40:35;;;;;;;4.10;1.60;;;17.20;62.30;;;;;;5072767;28;21108;-55
2024/03/23 11:43:04;;;;;;;3.37;1.67;;;17.00;61.30;;;;;;5072801;28;20824;-55
2024/03/23 11:45:35;;;;;;;4.53;1.30;;;17.00;61.00;;;;;;5073061;28;20437;-55
2024/03/23 11:48:09;;;;;;;1.60;0.73;;;16.30;63.40;;;;;;5073033;28;20425;-56
2024/03/23 11:50:37;;;;;;;2.13;0.40;;;14.70;63.60;;;;;;5072945;28;20472;-57
2024/03/23 11:53:23;;;;;;;1.00;0.50;;;13.10;70.10;;;;;;5073694;28;20849;-60
2024/03/23 11:55:50;;;;;;;1.67;0.90;;;11.50;77.20;;;;;;5072791;28;20907;-59
2024/03/23 11:58:18;;;;;;;1.10;0.50;;;10.40;85.50;;;;;;5073308;28;20425;-58
2024/03/23 12:00:51;;;;;;;2.00;0.83;;;9.80;86.70;;;;;;5073252;28;20506;-58
2024/03/23 12:03:21;;;;;;;2.97;1.20;;;9.40;91.50;;;;;;5073911;28;20429;-59
2024/03/23 12:05:49;;;;;;;2.37;1.20;;;9.20;93.10;;;;;;5073044;28;20448;-58
2024/03/23 12:08:21;;;;;;;2.37;1.00;;;9.10;94.60;;;;;;5072956;28;20444;-58
2024/03/23 12:10:49;;;;;;;3.57;1.30;;;9.00;96.30;;;;;;5072999;28;20503;-58
2024/03/23 12:13:18;;;;;;;3.47;1.37;;;8.80;97.00;;;;;;5076699;28;20503;-58
2024/03/23 12:15:45;;;;;;;2.37;1.10;;;8.50;97.60;;;;;;5077016;28;20448;-58
2024/03/23 12:18:13;;;;;;;1.33;0.57;;;8.40;98.10;;;;;;5076725;28;20436;-59
2024/03/23 12:20:40;;;;;;;3.30;1.60;;;8.20;95.40;;;;;;5076167;28;20840;-58
2024/03/23 12:23:09;;;;;;;0.60;0.50;;;8.10;95.80;;;;;;5076509;28;20451;-58
2024/03/23 12:25:36;;;;;;;2.20;0.80;;;8.10;96.20;;;;;;5076487;28;20475;-58
2024/03/23 12:28:05;;;;;;;2.63;0.70;;;8.10;96.50;;;;;;5076519;28;20504;-58
2024/03/23 12:30:32;;;;;;;2.63;0.63;;;8.30;97.50;;;;;;5076322;28;20541;-58
2024/03/23 12:32:59;;;;;;;2.57;0.60;;;8.50;97.30;;;;;;5076515;28;20440;-58
2024/03/23 12:35:26;;;;;;;1.67;0.50;;;9.00;96.30;;;;;;5076314;28;20658;-58
2024/03/23 12:37:53;;;;;;;2.20;0.60;;;9.60;95.30;;;;;;5076268;28;20505;-57
2024/03/23 12:40:19;;;;;;;2.83;0.70;;;10.10;93.40;;;;;;5076081;28;20932;-57
2024/03/23 12:42:46;;;;;;;2.40;0.70;;;10.70;92.20;;;;;;5075950;28;20484;-57
2024/03/23 12:45:11;;;;;;;2.33;0.63;;;11.30;90.20;;;;;;5076141;28;20210;-57
2024/03/23 12:47:38;;;;;;;5.07;1.00;;;11.90;87.50;;;;;;5075991;28;20472;-57
2024/03/23 12:50:05;;;;;;;2.00;0.87;;;12.60;84.70;;;;;;5075940;28;20230;-57